Chuuk, Chuuk International Airport (PTKK)

NameChuuk International Airport
CityChuuk
CountryMicronesia
ICAOPTKK
IATATKK
Altitude3 m
CoordinatesGoogle Map
Live Air TrafficLiveATC.net
METARPTKK 072050Z 00000KT 15SM FEW014 BKN280 25/24 A2980 RMK SLP093 8/101 T02530241 52017
2019-12-07 20:50:00 Wind: North (0°) 0 m/s - Visibility: 24140.1 m - Temperature: 25 °C - Dew point: 24 °C - Humidity: 94.2% - Pressure: 1009.14 hPa

Sorry, no flights used the airport in this database.